sensor_id;sensor_type;location;lat;lon;timestamp;pressure;altitude;pressure_sealevel;temperature;humidity
74881;BME280;63427;49.654;6.596;2022-09-17T00:01:59;99483.43;;;12.32;41.64
74881;BME280;63427;49.654;6.596;2022-09-17T00:04:24;99482.54;;;12.53;41.55
74881;BME280;63427;49.654;6.596;2022-09-17T00:06:50;99486.63;;;12.38;41.42
74881;BME280;63427;49.654;6.596;2022-09-17T00:09:16;99484.56;;;12.26;41.76
74881;BME280;63427;49.654;6.596;2022-09-17T00:11:42;99483.44;;;12.37;41.46
74881;BME280;63427;49.654;6.596;2022-09-17T00:14:13;99481.53;;;12.09;41.92
74881;BME280;63427;49.654;6.596;2022-09-17T00:16:35;99479.86;;;11.91;42.64
74881;BME280;63427;49.654;6.596;2022-09-17T00:18:58;99477.33;;;12.16;42.66
74881;BME280;63427;49.654;6.596;2022-09-17T00:21:24;99476.85;;;12.10;42.74
74881;BME280;63427;49.654;6.596;2022-09-17T00:23:57;99475.51;;;11.66;42.93
74881;BME280;63427;49.654;6.596;2022-09-17T00:26:15;99475.06;;;11.89;42.78
74881;BME280;63427;49.654;6.596;2022-09-17T00:28:40;99475.72;;;12.07;42.89
74881;BME280;63427;49.654;6.596;2022-09-17T00:31:08;99474.37;;;11.76;42.75
74881;BME280;63427;49.654;6.596;2022-09-17T00:33:31;99473.72;;;12.01;42.64
74881;BME280;63427;49.654;6.596;2022-09-17T00:35:58;99475.55;;;11.66;42.88
74881;BME280;63427;49.654;6.596;2022-09-17T00:38:23;99478.07;;;11.91;42.68
74881;BME280;63427;49.654;6.596;2022-09-17T00:40:49;99479.00;;;11.93;43.43
74881;BME280;63427;49.654;6.596;2022-09-17T00:45:46;99482.70;;;11.55;43.47
74881;BME280;63427;49.654;6.596;2022-09-17T00:48:06;99484.02;;;11.55;43.64
74881;BME280;63427;49.654;6.596;2022-09-17T00:50:34;99482.35;;;11.89;43.08
74881;BME280;63427;49.654;6.596;2022-09-17T00:53:00;99488.33;;;12.34;42.94
74881;BME280;63427;49.654;6.596;2022-09-17T00:55:26;99488.83;;;12.49;43.16
74881;BME280;63427;49.654;6.596;2022-09-17T01:02:46;99492.03;;;12.36;42.34
74881;BME280;63427;49.654;6.596;2022-09-17T01:05:06;99489.32;;;12.26;42.30
74881;BME280;63427;49.654;6.596;2022-09-17T01:10:02;99491.99;;;12.12;43.37
74881;BME280;63427;49.654;6.596;2022-09-17T01:15:05;99479.22;;;12.25;42.21
74881;BME280;63427;49.654;6.596;2022-09-17T01:17:19;99477.70;;;12.26;42.41
74881;BME280;63427;49.654;6.596;2022-09-17T01:22:07;99483.09;;;12.39;42.65
74881;BME280;63427;49.654;6.596;2022-09-17T01:31:51;99494.70;;;12.28;42.20
74881;BME280;63427;49.654;6.596;2022-09-17T01:34:19;99499.13;;;12.34;42.80
74881;BME280;63427;49.654;6.596;2022-09-17T01:36:47;99495.25;;;12.31;42.48
74881;BME280;63427;49.654;6.596;2022-09-17T01:39:08;99493.96;;;12.32;42.96
74881;BME280;63427;49.654;6.596;2022-09-17T01:41:38;99497.43;;;12.18;43.20
74881;BME280;63427;49.654;6.596;2022-09-17T01:43:58;99503.05;;;12.75;42.93
74881;BME280;63427;49.654;6.596;2022-09-17T01:46:23;99503.80;;;12.32;42.55
74881;BME280;63427;49.654;6.596;2022-09-17T01:48:47;99500.03;;;12.32;42.27
74881;BME280;63427;49.654;6.596;2022-09-17T01:56:13;99512.53;;;12.52;42.65
74881;BME280;63427;49.654;6.596;2022-09-17T01:58:37;99519.15;;;12.56;42.88
74881;BME280;63427;49.654;6.596;2022-09-17T02:01:00;99520.34;;;12.26;43.46
74881;BME280;63427;49.654;6.596;2022-09-17T02:03:24;99520.66;;;12.53;43.66
74881;BME280;63427;49.654;6.596;2022-09-17T02:05:51;99524.23;;;12.62;43.40
74881;BME280;63427;49.654;6.596;2022-09-17T02:08:16;99517.50;;;12.53;43.94
74881;BME280;63427;49.654;6.596;2022-09-17T02:10:41;99516.72;;;12.63;42.49
74881;BME280;63427;49.654;6.596;2022-09-17T02:13:04;99517.34;;;12.72;42.15
74881;BME280;63427;49.654;6.596;2022-09-17T02:15:32;99517.57;;;12.60;43.20
74881;BME280;63427;49.654;6.596;2022-09-17T02:17:54;99523.17;;;12.75;42.56
74881;BME280;63427;49.654;6.596;2022-09-17T02:20:17;99526.70;;;12.81;42.93
74881;BME280;63427;49.654;6.596;2022-09-17T02:22:48;99528.54;;;12.94;42.31
74881;BME280;63427;49.654;6.596;2022-09-17T02:25:17;99531.29;;;12.89;42.95
74881;BME280;63427;49.654;6.596;2022-09-17T02:27:41;99533.75;;;12.94;42.84
74881;BME280;63427;49.654;6.596;2022-09-17T02:30:00;99540.05;;;12.72;42.57
74881;BME280;63427;49.654;6.596;2022-09-17T02:32:25;99538.21;;;13.14;42.21
74881;BME280;63427;49.654;6.596;2022-09-17T02:34:52;99538.86;;;13.09;42.81
74881;BME280;63427;49.654;6.596;2022-09-17T02:37:16;99535.61;;;13.13;41.63
74881;BME280;63427;49.654;6.596;2022-09-17T02:39:42;99532.66;;;12.82;42.14
74881;BME280;63427;49.654;6.596;2022-09-17T02:42:17;99525.55;;;12.88;41.75
74881;BME280;63427;49.654;6.596;2022-09-17T02:44:38;99518.93;;;13.05;41.85
74881;BME280;63427;49.654;6.596;2022-09-17T02:49:36;99511.38;;;13.08;41.66
74881;BME280;63427;49.654;6.596;2022-09-17T02:51:58;99515.67;;;13.06;42.42
74881;BME280;63427;49.654;6.596;2022-09-17T02:54:22;99518.50;;;12.83;41.35
74881;BME280;63427;49.654;6.596;2022-09-17T02:56:50;99515.46;;;12.45;42.40
74881;BME280;63427;49.654;6.596;2022-09-17T02:59:12;99517.62;;;12.95;41.94
74881;BME280;63427;49.654;6.596;2022-09-17T03:01:35;99513.34;;;13.14;41.47
74881;BME280;63427;49.654;6.596;2022-09-17T03:03:58;99515.79;;;13.23;41.36
74881;BME280;63427;49.654;6.596;2022-09-17T03:06:24;99513.61;;;13.11;41.36
74881;BME280;63427;49.654;6.596;2022-09-17T03:08:56;99523.76;;;12.93;41.36
74881;BME280;63427;49.654;6.596;2022-09-17T03:11:14;99521.17;;;13.13;41.26
74881;BME280;63427;49.654;6.596;2022-09-17T03:13:39;99525.13;;;13.52;40.50
74881;BME280;63427;49.654;6.596;2022-09-17T03:16:06;99526.74;;;13.56;40.10
74881;BME280;63427;49.654;6.596;2022-09-17T03:18:30;99528.63;;;13.30;39.78
74881;BME280;63427;49.654;6.596;2022-09-17T03:20:56;99525.55;;;13.31;40.00
74881;BME280;63427;49.654;6.596;2022-09-17T03:23:21;99522.21;;;13.53;40.71
74881;BME280;63427;49.654;6.596;2022-09-17T03:25:47;99523.04;;;12.97;39.99
74881;BME280;63427;49.654;6.596;2022-09-17T03:28:12;99523.22;;;12.09;40.93
74881;BME280;63427;49.654;6.596;2022-09-17T03:30:43;99520.65;;;13.31;40.50
74881;BME280;63427;49.654;6.596;2022-09-17T03:33:03;99521.56;;;13.34;39.96
74881;BME280;63427;49.654;6.596;2022-09-17T03:35:29;99518.20;;;13.24;39.90
74881;BME280;63427;49.654;6.596;2022-09-17T03:38:06;99516.08;;;13.17;40.11
74881;BME280;63427;49.654;6.596;2022-09-17T03:40:20;99519.38;;;13.23;40.36
74881;BME280;63427;49.654;6.596;2022-09-17T03:42:46;99523.37;;;12.66;41.25
74881;BME280;63427;49.654;6.596;2022-09-17T03:45:11;99527.07;;;12.91;40.53
74881;BME280;63427;49.654;6.596;2022-09-17T03:47:46;99530.85;;;13.18;40.69
74881;BME280;63427;49.654;6.596;2022-09-17T03:50:04;99533.67;;;13.21;40.20
74881;BME280;63427;49.654;6.596;2022-09-17T03:52:29;99534.72;;;13.19;39.94
74881;BME280;63427;49.654;6.596;2022-09-17T03:54:53;99533.10;;;12.87;40.25
74881;BME280;63427;49.654;6.596;2022-09-17T03:57:19;99537.48;;;13.28;39.96
74881;BME280;63427;49.654;6.596;2022-09-17T03:59:44;99540.19;;;13.62;39.38
74881;BME280;63427;49.654;6.596;2022-09-17T04:02:10;99540.47;;;13.46;39.11
74881;BME280;63427;49.654;6.596;2022-09-17T04:04:35;99541.54;;;13.52;38.80
74881;BME280;63427;49.654;6.596;2022-09-17T04:07:01;99543.86;;;13.53;39.70
74881;BME280;63427;49.654;6.596;2022-09-17T04:09:26;99542.26;;;13.34;39.47
74881;BME280;63427;49.654;6.596;2022-09-17T04:11:52;99538.00;;;13.46;39.57
74881;BME280;63427;49.654;6.596;2022-09-17T04:14:17;99536.39;;;12.60;41.33
74881;BME280;63427;49.654;6.596;2022-09-17T04:16:48;99539.87;;;12.70;41.44
74881;BME280;63427;49.654;6.596;2022-09-17T04:19:08;99541.72;;;13.22;40.65
74881;BME280;63427;49.654;6.596;2022-09-17T04:21:34;99538.53;;;13.04;40.73
74881;BME280;63427;49.654;6.596;2022-09-17T04:24:00;99531.63;;;12.36;40.71
74881;BME280;63427;49.654;6.596;2022-09-17T04:26:25;99538.57;;;13.07;40.64
74881;BME280;63427;49.654;6.596;2022-09-17T04:28:50;99540.36;;;12.86;40.99
74881;BME280;63427;49.654;6.596;2022-09-17T04:31:16;99540.19;;;13.06;40.00
74881;BME280;63427;49.654;6.596;2022-09-17T04:33:41;99542.50;;;12.78;41.49
74881;BME280;63427;49.654;6.596;2022-09-17T04:36:07;99546.62;;;13.09;40.58
74881;BME280;63427;49.654;6.596;2022-09-17T04:38:33;99550.02;;;12.94;41.01
74881;BME280;63427;49.654;6.596;2022-09-17T04:40:59;99553.63;;;13.06;39.94
74881;BME280;63427;49.654;6.596;2022-09-17T04:43:24;99555.05;;;13.15;40.41
74881;BME280;63427;49.654;6.596;2022-09-17T04:45:51;99551.57;;;13.38;40.15
74881;BME280;63427;49.654;6.596;2022-09-17T04:48:15;99551.48;;;13.21;40.40
74881;BME280;63427;49.654;6.596;2022-09-17T04:53:06;99556.62;;;13.48;39.88
74881;BME280;63427;49.654;6.596;2022-09-17T04:55:31;99558.48;;;13.60;39.13
74881;BME280;63427;49.654;6.596;2022-09-17T04:58:11;99558.93;;;13.62;39.18
74881;BME280;63427;49.654;6.596;2022-09-17T05:00:22;99558.02;;;13.81;39.19
74881;BME280;63427;49.654;6.596;2022-09-17T05:02:49;99556.94;;;13.78;38.96
74881;BME280;63427;49.654;6.596;2022-09-17T05:05:15;99562.81;;;13.72;39.08
74881;BME280;63427;49.654;6.596;2022-09-17T05:07:39;99566.98;;;13.81;39.03
74881;BME280;63427;49.654;6.596;2022-09-17T05:10:05;99569.16;;;13.23;39.99
74881;BME280;63427;49.654;6.596;2022-09-17T05:12:30;99568.99;;;13.46;39.76
74881;BME280;63427;49.654;6.596;2022-09-17T05:14:55;99569.67;;;13.66;39.22
74881;BME280;63427;49.654;6.596;2022-09-17T05:17:21;99568.49;;;13.63;39.26
74881;BME280;63427;49.654;6.596;2022-09-17T05:19:56;99569.29;;;13.51;39.93
74881;BME280;63427;49.654;6.596;2022-09-17T05:22:13;99571.44;;;13.65;39.34
74881;BME280;63427;49.654;6.596;2022-09-17T05:24:37;99573.13;;;13.75;39.38
74881;BME280;63427;49.654;6.596;2022-09-17T05:27:02;99574.66;;;13.59;39.38
74881;BME280;63427;49.654;6.596;2022-09-17T05:29:28;99577.22;;;13.79;39.08
74881;BME280;63427;49.654;6.596;2022-09-17T05:32:02;99579.22;;;13.58;39.60
74881;BME280;63427;49.654;6.596;2022-09-17T05:34:19;99581.49;;;13.53;39.44
74881;BME280;63427;49.654;6.596;2022-09-17T05:36:50;99582.70;;;13.45;40.02
74881;BME280;63427;49.654;6.596;2022-09-17T05:39:10;99585.73;;;12.82;40.32
74881;BME280;63427;49.654;6.596;2022-09-17T05:41:36;99585.00;;;13.18;40.57
74881;BME280;63427;49.654;6.596;2022-09-17T05:44:02;99584.38;;;13.42;40.52
74881;BME280;63427;49.654;6.596;2022-09-17T05:46:27;99581.06;;;13.30;40.09
74881;BME280;63427;49.654;6.596;2022-09-17T05:48:57;99585.86;;;13.39;40.51
74881;BME280;63427;49.654;6.596;2022-09-17T05:51:18;99586.40;;;13.67;39.51
74881;BME280;63427;49.654;6.596;2022-09-17T05:53:43;99594.30;;;12.85;41.12
74881;BME280;63427;49.654;6.596;2022-09-17T05:56:09;99601.99;;;12.72;41.03
74881;BME280;63427;49.654;6.596;2022-09-17T05:58:34;99601.89;;;13.25;40.11
74881;BME280;63427;49.654;6.596;2022-09-17T06:01:00;99596.26;;;13.93;40.69
74881;BME280;63427;49.654;6.596;2022-09-17T06:03:36;99602.37;;;13.44;40.80
74881;BME280;63427;49.654;6.596;2022-09-17T06:05:55;99601.15;;;13.25;41.43
74881;BME280;63427;49.654;6.596;2022-09-17T06:08:19;99599.87;;;12.95;41.88
74881;BME280;63427;49.654;6.596;2022-09-17T06:10:42;99603.69;;;13.42;41.44
74881;BME280;63427;49.654;6.596;2022-09-17T06:13:07;99605.01;;;13.47;40.60
74881;BME280;63427;49.654;6.596;2022-09-17T06:15:33;99608.65;;;13.67;40.90
74881;BME280;63427;49.654;6.596;2022-09-17T06:17:58;99610.35;;;13.84;39.92
74881;BME280;63427;49.654;6.596;2022-09-17T06:20:29;99611.31;;;13.72;40.23
74881;BME280;63427;49.654;6.596;2022-09-17T06:25:15;99608.12;;;13.56;40.23
74881;BME280;63427;49.654;6.596;2022-09-17T06:27:40;99611.49;;;13.65;39.60
74881;BME280;63427;49.654;6.596;2022-09-17T06:30:09;99615.30;;;13.72;39.15
74881;BME280;63427;49.654;6.596;2022-09-17T06:32:32;99616.32;;;13.89;38.79
74881;BME280;63427;49.654;6.596;2022-09-17T06:34:59;99616.80;;;14.55;38.98
74881;BME280;63427;49.654;6.596;2022-09-17T06:37:27;99620.84;;;14.07;39.61
74881;BME280;63427;49.654;6.596;2022-09-17T06:39:48;99622.36;;;14.54;39.18
74881;BME280;63427;49.654;6.596;2022-09-17T06:42:13;99627.04;;;13.99;38.72
74881;BME280;63427;49.654;6.596;2022-09-17T06:44:39;99628.89;;;14.29;39.23
74881;BME280;63427;49.654;6.596;2022-09-17T06:47:04;99630.24;;;13.93;40.22
74881;BME280;63427;49.654;6.596;2022-09-17T06:49:30;99631.89;;;14.00;38.86
74881;BME280;63427;49.654;6.596;2022-09-17T06:54:21;99626.59;;;14.09;39.23
74881;BME280;63427;49.654;6.596;2022-09-17T06:59:12;99627.65;;;14.21;38.84
74881;BME280;63427;49.654;6.596;2022-09-17T07:01:37;99626.93;;;14.16;39.24
74881;BME280;63427;49.654;6.596;2022-09-17T07:04:03;99624.00;;;14.14;39.02
74881;BME280;63427;49.654;6.596;2022-09-17T07:06:29;99624.22;;;14.29;39.02
74881;BME280;63427;49.654;6.596;2022-09-17T07:08:53;99620.38;;;14.42;39.19
74881;BME280;63427;49.654;6.596;2022-09-17T07:11:25;99620.57;;;14.90;38.80
74881;BME280;63427;49.654;6.596;2022-09-17T07:13:45;99617.52;;;14.65;38.14
74881;BME280;63427;49.654;6.596;2022-09-17T07:16:10;99618.56;;;14.65;38.45
74881;BME280;63427;49.654;6.596;2022-09-17T07:18:36;99619.43;;;14.70;38.91
74881;BME280;63427;49.654;6.596;2022-09-17T07:21:03;99618.31;;;14.42;39.61
74881;BME280;63427;49.654;6.596;2022-09-17T07:23:28;99618.07;;;14.54;39.20
74881;BME280;63427;49.654;6.596;2022-09-17T07:25:52;99620.19;;;13.58;40.06
74881;BME280;63427;49.654;6.596;2022-09-17T07:28:17;99616.53;;;14.26;39.20
74881;BME280;63427;49.654;6.596;2022-09-17T07:30:43;99622.53;;;14.21;39.99
74881;BME280;63427;49.654;6.596;2022-09-17T07:33:08;99620.17;;;14.58;39.49
74881;BME280;63427;49.654;6.596;2022-09-17T07:37:59;99624.79;;;14.86;38.17
74881;BME280;63427;49.654;6.596;2022-09-17T07:42:50;99625.73;;;15.28;37.86
74881;BME280;63427;49.654;6.596;2022-09-17T07:45:16;99631.41;;;14.41;40.33
74881;BME280;63427;49.654;6.596;2022-09-17T07:47:41;99630.14;;;15.39;39.53
74881;BME280;63427;49.654;6.596;2022-09-17T07:50:08;99633.46;;;16.12;37.08
74881;BME280;63427;49.654;6.596;2022-09-17T07:52:32;99630.88;;;15.05;37.02
74881;BME280;63427;49.654;6.596;2022-09-17T07:54:58;99630.04;;;16.47;36.75
74881;BME280;63427;49.654;6.596;2022-09-17T07:57:23;99629.36;;;16.67;35.99
74881;BME280;63427;49.654;6.596;2022-09-17T07:59:53;99629.27;;;16.36;35.46
74881;BME280;63427;49.654;6.596;2022-09-17T08:02:13;99630.09;;;16.41;35.18
74881;BME280;63427;49.654;6.596;2022-09-17T08:04:41;99634.79;;;16.60;34.46
74881;BME280;63427;49.654;6.596;2022-09-17T08:07:05;99637.93;;;16.79;35.01
74881;BME280;63427;49.654;6.596;2022-09-17T08:09:29;99634.85;;;16.84;34.79
74881;BME280;63427;49.654;6.596;2022-09-17T08:12:09;99633.77;;;17.01;35.13
74881;BME280;63427;49.654;6.596;2022-09-17T08:16:45;99639.76;;;17.14;35.02
74881;BME280;63427;49.654;6.596;2022-09-17T08:19:12;99642.95;;;17.27;34.18
74881;BME280;63427;49.654;6.596;2022-09-17T08:21:36;99643.42;;;17.47;34.03
74881;BME280;63427;49.654;6.596;2022-09-17T08:24:02;99635.85;;;17.09;34.45
74881;BME280;63427;49.654;6.596;2022-09-17T08:26:31;99640.88;;;17.40;34.82
74881;BME280;63427;49.654;6.596;2022-09-17T08:28:53;99642.70;;;17.38;34.27
74881;BME280;63427;49.654;6.596;2022-09-17T08:31:18;99642.34;;;17.70;33.91
74881;BME280;63427;49.654;6.596;2022-09-17T08:33:44;99634.19;;;17.67;32.49
74881;BME280;63427;49.654;6.596;2022-09-17T08:36:10;99637.70;;;17.76;32.52
74881;BME280;63427;49.654;6.596;2022-09-17T08:38:35;99641.57;;;17.98;32.66
74881;BME280;63427;49.654;6.596;2022-09-17T08:41:09;99643.73;;;17.98;32.41
74881;BME280;63427;49.654;6.596;2022-09-17T08:43:25;99641.22;;;18.26;31.85
74881;BME280;63427;49.654;6.596;2022-09-17T08:45:53;99639.00;;;18.38;31.53
74881;BME280;63427;49.654;6.596;2022-09-17T08:48:15;99642.87;;;18.43;31.45
74881;BME280;63427;49.654;6.596;2022-09-17T08:50:41;99649.00;;;18.58;30.80
74881;BME280;63427;49.654;6.596;2022-09-17T08:53:15;99653.66;;;18.30;30.73
74881;BME280;63427;49.654;6.596;2022-09-17T08:55:36;99655.68;;;18.21;30.33
74881;BME280;63427;49.654;6.596;2022-09-17T09:00:23;99656.10;;;17.64;30.39
74881;BME280;63427;49.654;6.596;2022-09-17T09:03:01;99662.02;;;17.89;30.88
74881;BME280;63427;49.654;6.596;2022-09-17T09:05:13;99659.71;;;17.82;30.90
74881;BME280;63427;49.654;6.596;2022-09-17T09:07:40;99664.67;;;18.13;30.40
74881;BME280;63427;49.654;6.596;2022-09-17T09:10:13;99663.01;;;17.95;30.88
74881;BME280;63427;49.654;6.596;2022-09-17T09:12:38;99660.28;;;18.45;30.05
74881;BME280;63427;49.654;6.596;2022-09-17T09:14:57;99653.03;;;18.24;29.50
74881;BME280;63427;49.654;6.596;2022-09-17T09:19:45;99659.10;;;18.58;30.35
74881;BME280;63427;49.654;6.596;2022-09-17T09:24:40;99654.84;;;19.30;30.00
74881;BME280;63427;49.654;6.596;2022-09-17T09:27:17;99656.09;;;19.84;29.67
74881;BME280;63427;49.654;6.596;2022-09-17T09:29:48;99659.69;;;19.47;29.26
74881;BME280;63427;49.654;6.596;2022-09-17T09:32:00;99664.46;;;19.36;28.44
74881;BME280;63427;49.654;6.596;2022-09-17T09:34:16;99662.74;;;18.47;29.87
74881;BME280;63427;49.654;6.596;2022-09-17T09:36:42;99660.23;;;18.20;28.87
74881;BME280;63427;49.654;6.596;2022-09-17T09:39:13;99657.46;;;19.69;28.56
74881;BME280;63427;49.654;6.596;2022-09-17T09:41:38;99652.96;;;19.07;28.47
74881;BME280;63427;49.654;6.596;2022-09-17T09:44:00;99657.37;;;19.51;29.02
74881;BME280;63427;49.654;6.596;2022-09-17T09:48:55;99661.33;;;18.82;29.40
74881;BME280;63427;49.654;6.596;2022-09-17T09:51:24;99661.76;;;18.59;29.13
74881;BME280;63427;49.654;6.596;2022-09-17T09:53:47;99667.25;;;18.70;28.97
74881;BME280;63427;49.654;6.596;2022-09-17T09:58:35;99665.28;;;18.90;29.02
74881;BME280;63427;49.654;6.596;2022-09-17T10:00:53;99664.96;;;19.06;28.58
74881;BME280;63427;49.654;6.596;2022-09-17T10:05:52;99654.01;;;19.31;28.08
74881;BME280;63427;49.654;6.596;2022-09-17T10:08:11;99653.02;;;19.52;28.52
74881;BME280;63427;49.654;6.596;2022-09-17T10:10:37;99659.63;;;19.80;28.16
74881;BME280;63427;49.654;6.596;2022-09-17T10:13:09;99660.14;;;19.04;27.92
74881;BME280;63427;49.654;6.596;2022-09-17T10:15:27;99659.31;;;19.66;28.24
74881;BME280;63427;49.654;6.596;2022-09-17T10:18:10;99657.41;;;19.63;27.66
74881;BME280;63427;49.654;6.596;2022-09-17T10:20:16;99653.16;;;19.59;27.42
74881;BME280;63427;49.654;6.596;2022-09-17T10:22:48;99647.62;;;19.84;26.79
74881;BME280;63427;49.654;6.596;2022-09-17T10:25:25;99645.45;;;19.86;26.18
74881;BME280;63427;49.654;6.596;2022-09-17T10:27:32;99643.62;;;20.39;26.68
74881;BME280;63427;49.654;6.596;2022-09-17T10:32:22;99636.85;;;20.46;25.62
74881;BME280;63427;49.654;6.596;2022-09-17T10:35:00;99639.66;;;20.60;25.68
74881;BME280;63427;49.654;6.596;2022-09-17T10:39:38;99628.05;;;21.12;25.14
74881;BME280;63427;49.654;6.596;2022-09-17T10:42:04;99640.00;;;21.79;23.90
74881;BME280;63427;49.654;6.596;2022-09-17T10:47:12;99633.82;;;21.62;23.84
74881;BME280;63427;49.654;6.596;2022-09-17T10:51:52;99634.50;;;20.90;24.46
74881;BME280;63427;49.654;6.596;2022-09-17T10:54:16;99631.82;;;21.83;24.25
74881;BME280;63427;49.654;6.596;2022-09-17T10:56:35;99626.76;;;21.91;23.25
74881;BME280;63427;49.654;6.596;2022-09-17T10:59:10;99624.41;;;21.76;23.81
74881;BME280;63427;49.654;6.596;2022-09-17T11:01:32;99621.56;;;22.39;23.22
74881;BME280;63427;49.654;6.596;2022-09-17T11:04:02;99630.69;;;22.15;23.11
74881;BME280;63427;49.654;6.596;2022-09-17T11:08:49;99634.77;;;21.39;22.78
74881;BME280;63427;49.654;6.596;2022-09-17T11:11:10;99629.56;;;22.54;22.20
74881;BME280;63427;49.654;6.596;2022-09-17T11:13:38;99627.45;;;22.75;22.58
74881;BME280;63427;49.654;6.596;2022-09-17T11:18:33;99626.81;;;22.38;22.12
74881;BME280;63427;49.654;6.596;2022-09-17T11:20:57;99636.14;;;22.27;22.26
74881;BME280;63427;49.654;6.596;2022-09-17T11:23:21;99660.92;;;21.50;25.27
74881;BME280;63427;49.654;6.596;2022-09-17T11:25:44;99645.49;;;21.57;25.24
74881;BME280;63427;49.654;6.596;2022-09-17T11:30:33;99646.28;;;21.06;27.23
74881;BME280;63427;49.654;6.596;2022-09-17T11:35:20;99648.06;;;20.33;28.26
74881;BME280;63427;49.654;6.596;2022-09-17T11:38:02;99647.53;;;20.60;29.31
74881;BME280;63427;49.654;6.596;2022-09-17T11:40:14;99642.49;;;20.86;28.81
74881;BME280;63427;49.654;6.596;2022-09-17T11:42:38;99640.87;;;20.17;29.21
74881;BME280;63427;49.654;6.596;2022-09-17T11:45:03;99643.71;;;20.31;28.75
74881;BME280;63427;49.654;6.596;2022-09-17T11:47:29;99640.26;;;20.24;29.86
74881;BME280;63427;49.654;6.596;2022-09-17T11:50:02;99633.39;;;20.41;30.34
74881;BME280;63427;49.654;6.596;2022-09-17T11:52:19;99627.63;;;20.58;30.95
74881;BME280;63427;49.654;6.596;2022-09-17T11:54:51;99626.13;;;20.51;29.18
74881;BME280;63427;49.654;6.596;2022-09-17T11:57:15;99626.05;;;20.62;27.93
74881;BME280;63427;49.654;6.596;2022-09-17T11:59:34;99620.45;;;20.71;28.79
74881;BME280;63427;49.654;6.596;2022-09-17T12:02:02;99619.32;;;20.77;28.10
74881;BME280;63427;49.654;6.596;2022-09-17T12:04:33;99615.89;;;21.36;28.33
74881;BME280;63427;49.654;6.596;2022-09-17T12:07:02;99615.23;;;21.08;28.72
74881;BME280;63427;49.654;6.596;2022-09-17T12:09:14;99613.05;;;20.99;27.98
74881;BME280;63427;49.654;6.596;2022-09-17T12:11:44;99620.61;;;21.08;28.28
74881;BME280;63427;49.654;6.596;2022-09-17T12:14:08;99607.85;;;21.30;26.70
74881;BME280;63427;49.654;6.596;2022-09-17T12:16:44;99603.09;;;21.40;24.62
74881;BME280;63427;49.654;6.596;2022-09-17T12:19:03;99600.50;;;21.22;26.32
74881;BME280;63427;49.654;6.596;2022-09-17T12:21:20;99597.47;;;21.24;25.28
74881;BME280;63427;49.654;6.596;2022-09-17T12:23:46;99597.53;;;20.53;24.69
74881;BME280;63427;49.654;6.596;2022-09-17T12:28:36;99595.07;;;21.30;25.35
74881;BME280;63427;49.654;6.596;2022-09-17T12:31:04;99589.25;;;21.37;23.97
74881;BME280;63427;49.654;6.596;2022-09-17T12:33:29;99590.89;;;21.48;25.35
74881;BME280;63427;49.654;6.596;2022-09-17T12:36:06;99592.90;;;21.46;23.87
74881;BME280;63427;49.654;6.596;2022-09-17T12:38:24;99597.56;;;21.41;23.06
74881;BME280;63427;49.654;6.596;2022-09-17T12:40:41;99587.93;;;20.89;23.80
74881;BME280;63427;49.654;6.596;2022-09-17T12:43:20;99594.47;;;22.09;23.54
74881;BME280;63427;49.654;6.596;2022-09-17T12:45:54;99588.34;;;22.52;22.82
74881;BME280;63427;49.654;6.596;2022-09-17T12:48:06;99591.06;;;23.04;23.43
74881;BME280;63427;49.654;6.596;2022-09-17T12:50:26;99588.02;;;23.47;21.82
74881;BME280;63427;49.654;6.596;2022-09-17T12:52:56;99591.54;;;22.99;21.23
74881;BME280;63427;49.654;6.596;2022-09-17T12:55:20;99584.43;;;23.54;22.32
74881;BME280;63427;49.654;6.596;2022-09-17T12:57:39;99578.70;;;24.16;21.72
74881;BME280;63427;49.654;6.596;2022-09-17T13:00:03;99579.18;;;23.44;21.16
74881;BME280;63427;49.654;6.596;2022-09-17T13:05:37;99573.00;;;23.55;22.44
74881;BME280;63427;49.654;6.596;2022-09-17T13:07:30;99564.82;;;23.68;20.56
74881;BME280;63427;49.654;6.596;2022-09-17T13:12:13;99565.21;;;24.19;20.04
74881;BME280;63427;49.654;6.596;2022-09-17T13:17:01;99566.15;;;24.14;19.94
74881;BME280;63427;49.654;6.596;2022-09-17T13:19:34;99564.37;;;23.94;20.17
74881;BME280;63427;49.654;6.596;2022-09-17T13:21:52;99557.29;;;23.07;21.24
74881;BME280;63427;49.654;6.596;2022-09-17T13:24:15;99565.51;;;23.75;21.15
74881;BME280;63427;49.654;6.596;2022-09-17T13:26:37;99560.26;;;24.03;20.62
74881;BME280;63427;49.654;6.596;2022-09-17T13:29:07;99558.80;;;23.94;20.88
74881;BME280;63427;49.654;6.596;2022-09-17T13:34:00;99570.62;;;23.24;21.63
74881;BME280;63427;49.654;6.596;2022-09-17T13:36:36;99575.89;;;23.11;21.97
74881;BME280;63427;49.654;6.596;2022-09-17T13:38:42;99577.24;;;22.20;22.43
74881;BME280;63427;49.654;6.596;2022-09-17T13:41:16;99579.14;;;22.57;22.83
74881;BME280;63427;49.654;6.596;2022-09-17T13:43:32;99580.04;;;22.51;23.15
74881;BME280;63427;49.654;6.596;2022-09-17T13:46:08;99585.83;;;22.26;22.53
74881;BME280;63427;49.654;6.596;2022-09-17T13:48:23;99592.37;;;22.08;23.64
74881;BME280;63427;49.654;6.596;2022-09-17T13:55:39;99597.46;;;22.24;24.17
74881;BME280;63427;49.654;6.596;2022-09-17T13:58:03;99602.95;;;22.26;24.28
74881;BME280;63427;49.654;6.596;2022-09-17T14:02:52;99608.78;;;21.82;24.10
74881;BME280;63427;49.654;6.596;2022-09-17T14:07:46;99609.27;;;21.09;24.83
74881;BME280;63427;49.654;6.596;2022-09-17T14:14:58;99612.06;;;20.76;25.77
74881;BME280;63427;49.654;6.596;2022-09-17T14:19:49;99619.10;;;20.99;23.99
74881;BME280;63427;49.654;6.596;2022-09-17T14:22:16;99619.79;;;20.59;26.20
74881;BME280;63427;49.654;6.596;2022-09-17T14:27:11;99620.70;;;20.74;26.12
74881;BME280;63427;49.654;6.596;2022-09-17T14:29:40;99625.43;;;21.33;24.21
74881;BME280;63427;49.654;6.596;2022-09-17T14:31:55;99623.59;;;20.86;24.24
74881;BME280;63427;49.654;6.596;2022-09-17T14:34:21;99617.80;;;21.18;24.76
74881;BME280;63427;49.654;6.596;2022-09-17T14:36:44;99616.66;;;21.10;25.12
74881;BME280;63427;49.654;6.596;2022-09-17T14:41:48;99609.89;;;21.07;24.22
74881;BME280;63427;49.654;6.596;2022-09-17T14:44:06;99610.66;;;21.12;25.88